CDT,Max TemperatureF,Mean TemperatureF,Min TemperatureF,Max Dew PointF,MeanDew PointF,Min DewpointF,Max Humidity, Mean Humidity, Min Humidity, Max Sea Level PressureIn, Mean Sea Level PressureIn, Min Sea Level PressureIn, Max VisibilityMiles, Mean VisibilityMiles, Min VisibilityMiles, Max Wind SpeedMPH, Mean Wind SpeedMPH, Max Gust SpeedMPH,PrecipitationIn, CloudCover, Events, WindDirDegrees
2011-10-1,57,44,32,37,34,30,92,71,39,30.42,30.34,30.29,10,10,10,6,3,,0.00,0,,11
2011-10-2,69,50,33,46,39,31,92,68,39,30.30,30.24,30.16,10,10,10,8,2,,0.00,0,,261
2011-10-3,73,59,45,50,46,42,90,62,41,30.28,30.25,30.19,10,7,0,9,4,,0.00,0,,96
2011-10-4,75,60,46,51,48,44,90,70,40,30.28,30.22,30.17,10,10,9,8,2,,0.00,0,,178
2011-10-5,80,63,46,51,48,44,90,63,34,30.21,30.17,30.13,10,10,9,13,3,,0.00,0,,161
2011-10-6,77,62,48,52,48,44,90,63,37,30.22,30.18,30.15,10,10,5,15,4,,0.00,0,,139
2011-10-7,80,67,55,54,50,46,80,56,35,30.19,30.12,30.04,10,10,10,21,10,31,0.00,0,,174
2011-10-8,80,70,60,56,52,46,72,55,38,30.21,30.16,30.09,10,10,10,17,10,25,0.00,0,,187
2011-10-9,79,66,53,55,51,48,83,63,40,30.31,30.25,30.21,10,10,10,9,4,,0.00,0,,168
2011-10-10,75,62,50,52,48,45,89,63,37,30.22,30.10,29.99,10,9,5,15,5,18,0.00,0,,148
2011-10-11,69,60,53,58,53,49,100,84,70,29.99,29.93,29.89,10,7,1,8,5,,0.00,3,Rain,158
2011-10-12,66,57,48,58,54,47,100,92,68,29.90,29.78,29.65,10,3,0,16,3,21,0.00,6,Fog-Rain-Thunderstorm,93
2011-10-13,60,56,48,56,53,43,96,88,77,29.65,29.55,29.49,10,7,2,20,9,26,0.00,8,Rain,300
2011-10-14,52,46,42,42,37,32,87,70,54,29.63,29.57,29.52,10,10,10,24,15,36,0.00,6,,295
2011-10-15,55,49,43,36,35,32,74,59,44,29.80,29.74,29.64,10,10,10,24,17,34,0.00,3,,288
2011-10-16,55,47,39,38,32,26,86,55,35,29.79,29.75,29.71,10,10,10,23,11,36,0.00,2,,276
2011-10-17,55,47,39,30,29,26,68,51,32,29.81,29.75,29.73,10,10,10,23,15,32,0.00,0,,278
2011-10-18,48,44,39,37,34,28,81,69,58,29.99,29.90,29.79,10,10,10,13,8,22,0.00,7,Rain,337
2011-10-19,48,42,37,35,33,31,83,70,50,30.02,29.97,29.89,10,10,10,17,10,24,0.00,5,,12
2011-10-20,48,40,33,33,31,29,85,69,54,29.93,29.82,29.77,10,10,10,22,14,34,0.00,6,,352
2011-10-21,54,41,28,32,29,25,89,65,35,30.06,30.02,29.95,10,10,10,12,4,,0.00,0,,268
2011-10-22,57,46,36,37,32,29,79,63,42,30.07,30.04,30.00,10,10,8,9,4,,0.00,0,,326
2011-10-23,57,45,33,48,40,29,100,84,59,30.01,29.85,29.75,10,7,0,13,4,22,0.06,2,Fog-Rain-Thunderstorm,252
2011-10-24,59,47,37,40,38,35,93,73,46,30.06,30.00,29.90,10,10,7,12,6,,0.00,2,,286
2011-10-25,48,44,39,40,38,34,92,82,66,30.05,29.95,29.88,10,8,2,21,12,32,0.05,8,Rain-Thunderstorm,64
2011-10-26,50,42,36,36,33,29,93,78,46,30.07,30.01,29.94,10,10,10,12,8,,0.00,6,,13
2011-10-27,48,38,30,36,32,28,93,82,61,30.14,30.06,30.01,10,8,2,15,2,24,0.00,5,Rain,300
2011-10-28,51,38,28,35,28,25,100,84,43,30.13,30.08,30.00,10,4,0,14,1,18,0.00,2,Fog,213
2011-10-29,50,38,28,33,27,24,88,68,39,30.09,30.05,30.00,10,10,10,9,5,,0.00,1,,289
2011-10-30,44,38,33,38,34,25,93,83,53,30.05,29.89,29.81,10,7,3,13,5,,0.04,8,Rain,142
2011-10-31,44,40,35,38,36,32,100,89,71,30.07,29.98,29.88,10,6,0,8,5,,0.00,7,Fog,265